Terminal Aerodrome Forecast
Issued by NWS Grand Forks, ND

Home | Current Version | Previous Version | Text Only | Print | Product List | Glossary Off
Versions: 1 2 3 4 5 6 7 8 9 10 11 12 13 14 15 16 17 18 19 20 21 22 23

000
FTUS43 KFGF 282301 AAC
TAFGFK
TAF AMD
KGFK 282301Z 2823/2918 20013G19KT P6SM BKN250
     FM290000 22008KT P6SM SCT250
     FM291100 18003KT 5SM BR SKC
     FM291300 18005KT P6SM SKC=

USA.gov is the U.S. government's official web portal to all federal, state and local government web resources and services.